sensor_id;sensor_type;location;lat;lon;timestamp;P1;durP1;ratioP1;P2;durP2;ratioP2
71963;SDS011;59834;52.124;5.422;2023-06-10T00:00:47;8.43;;;2.90;;
71963;SDS011;59834;52.124;5.422;2023-06-10T00:03:13;5.47;;;2.50;;
71963;SDS011;59834;52.124;5.422;2023-06-10T00:05:41;4.65;;;2.85;;
71963;SDS011;59834;52.124;5.422;2023-06-10T00:08:07;7.33;;;2.83;;
71963;SDS011;59834;52.124;5.422;2023-06-10T00:10:34;4.25;;;2.47;;
71963;SDS011;59834;52.124;5.422;2023-06-10T00:13:02;4.78;;;2.83;;
71963;SDS011;59834;52.124;5.422;2023-06-10T00:15:30;4.53;;;3.10;;
71963;SDS011;59834;52.124;5.422;2023-06-10T00:17:57;5.03;;;3.22;;
71963;SDS011;59834;52.124;5.422;2023-06-10T00:20:24;7.73;;;3.00;;
71963;SDS011;59834;52.124;5.422;2023-06-10T00:22:51;5.50;;;2.58;;
71963;SDS011;59834;52.124;5.422;2023-06-10T00:25:18;4.90;;;2.92;;
71963;SDS011;59834;52.124;5.422;2023-06-10T00:27:45;7.60;;;2.60;;
71963;SDS011;59834;52.124;5.422;2023-06-10T00:30:11;5.63;;;2.60;;
71963;SDS011;59834;52.124;5.422;2023-06-10T00:32:38;5.57;;;2.87;;
71963;SDS011;59834;52.124;5.422;2023-06-10T00:35:05;4.65;;;3.30;;
71963;SDS011;59834;52.124;5.422;2023-06-10T00:37:33;6.60;;;3.28;;
71963;SDS011;59834;52.124;5.422;2023-06-10T00:40:04;6.25;;;3.22;;
71963;SDS011;59834;52.124;5.422;2023-06-10T00:42:31;4.93;;;3.00;;
71963;SDS011;59834;52.124;5.422;2023-06-10T00:44:58;4.93;;;2.87;;
71963;SDS011;59834;52.124;5.422;2023-06-10T00:47:25;9.45;;;3.97;;
71963;SDS011;59834;52.124;5.422;2023-06-10T00:49:51;3.78;;;2.90;;
71963;SDS011;59834;52.124;5.422;2023-06-10T00:52:19;4.82;;;2.25;;
71963;SDS011;59834;52.124;5.422;2023-06-10T00:54:48;8.50;;;2.95;;
71963;SDS011;59834;52.124;5.422;2023-06-10T00:57:15;11.13;;;3.70;;
71963;SDS011;59834;52.124;5.422;2023-06-10T00:59:42;5.47;;;2.78;;
71963;SDS011;59834;52.124;5.422;2023-06-10T01:02:13;4.07;;;2.50;;
71963;SDS011;59834;52.124;5.422;2023-06-10T01:04:40;9.68;;;3.00;;
71963;SDS011;59834;52.124;5.422;2023-06-10T01:10:10;6.20;;;2.37;;
71963;SDS011;59834;52.124;5.422;2023-06-10T01:13:01;5.43;;;2.95;;
71963;SDS011;59834;52.124;5.422;2023-06-10T01:15:30;7.57;;;3.17;;
71963;SDS011;59834;52.124;5.422;2023-06-10T01:17:58;6.13;;;2.90;;
71963;SDS011;59834;52.124;5.422;2023-06-10T01:20:26;7.28;;;3.00;;
71963;SDS011;59834;52.124;5.422;2023-06-10T01:22:56;10.43;;;2.57;;
71963;SDS011;59834;52.124;5.422;2023-06-10T01:25:25;5.13;;;2.42;;
71963;SDS011;59834;52.124;5.422;2023-06-10T01:28:03;7.90;;;2.38;;
71963;SDS011;59834;52.124;5.422;2023-06-10T01:30:38;7.30;;;2.50;;
71963;SDS011;59834;52.124;5.422;2023-06-10T01:33:16;4.28;;;2.38;;
71963;SDS011;59834;52.124;5.422;2023-06-10T01:35:47;8.80;;;2.80;;
71963;SDS011;59834;52.124;5.422;2023-06-10T01:38:14;5.63;;;2.72;;
71963;SDS011;59834;52.124;5.422;2023-06-10T01:40:42;9.13;;;3.33;;
71963;SDS011;59834;52.124;5.422;2023-06-10T01:43:09;3.75;;;2.50;;
71963;SDS011;59834;52.124;5.422;2023-06-10T01:45:35;3.92;;;2.53;;
71963;SDS011;59834;52.124;5.422;2023-06-10T01:48:02;6.00;;;2.53;;
71963;SDS011;59834;52.124;5.422;2023-06-10T01:50:28;4.88;;;2.53;;
71963;SDS011;59834;52.124;5.422;2023-06-10T01:52:56;8.02;;;2.75;;
71963;SDS011;59834;52.124;5.422;2023-06-10T01:55:24;3.72;;;2.60;;
71963;SDS011;59834;52.124;5.422;2023-06-10T01:57:50;4.68;;;2.08;;
71963;SDS011;59834;52.124;5.422;2023-06-10T02:00:18;7.33;;;2.37;;
71963;SDS011;59834;52.124;5.422;2023-06-10T02:02:44;6.20;;;2.75;;
71963;SDS011;59834;52.124;5.422;2023-06-10T02:05:11;5.78;;;2.20;;
71963;SDS011;59834;52.124;5.422;2023-06-10T02:07:38;5.45;;;3.35;;
71963;SDS011;59834;52.124;5.422;2023-06-10T02:10:06;6.55;;;2.63;;
71963;SDS011;59834;52.124;5.422;2023-06-10T02:12:33;5.33;;;2.40;;
71963;SDS011;59834;52.124;5.422;2023-06-10T02:14:59;7.03;;;3.05;;
71963;SDS011;59834;52.124;5.422;2023-06-10T02:17:26;6.32;;;2.72;;
71963;SDS011;59834;52.124;5.422;2023-06-10T02:19:52;5.90;;;2.42;;
71963;SDS011;59834;52.124;5.422;2023-06-10T02:22:20;6.50;;;2.40;;
71963;SDS011;59834;52.124;5.422;2023-06-10T02:24:48;6.67;;;2.60;;
71963;SDS011;59834;52.124;5.422;2023-06-10T02:27:16;5.35;;;2.30;;
71963;SDS011;59834;52.124;5.422;2023-06-10T02:29:44;7.43;;;2.90;;
71963;SDS011;59834;52.124;5.422;2023-06-10T02:32:11;7.95;;;2.67;;
71963;SDS011;59834;52.124;5.422;2023-06-10T02:34:37;9.13;;;3.20;;
71963;SDS011;59834;52.124;5.422;2023-06-10T02:37:05;6.57;;;2.33;;
71963;SDS011;59834;52.124;5.422;2023-06-10T02:39:31;6.10;;;2.60;;
71963;SDS011;59834;52.124;5.422;2023-06-10T02:41:58;3.70;;;2.80;;
71963;SDS011;59834;52.124;5.422;2023-06-10T02:44:25;3.67;;;2.20;;
71963;SDS011;59834;52.124;5.422;2023-06-10T02:46:52;4.40;;;2.10;;
71963;SDS011;59834;52.124;5.422;2023-06-10T02:49:19;5.03;;;2.73;;
71963;SDS011;59834;52.124;5.422;2023-06-10T02:51:45;7.70;;;2.65;;
71963;SDS011;59834;52.124;5.422;2023-06-10T02:54:12;5.75;;;2.60;;
71963;SDS011;59834;52.124;5.422;2023-06-10T02:56:38;4.20;;;2.85;;
71963;SDS011;59834;52.124;5.422;2023-06-10T02:59:09;8.35;;;2.70;;
71963;SDS011;59834;52.124;5.422;2023-06-10T03:01:35;7.93;;;2.90;;
71963;SDS011;59834;52.124;5.422;2023-06-10T03:04:06;6.53;;;2.60;;
71963;SDS011;59834;52.124;5.422;2023-06-10T03:06:34;8.30;;;2.75;;
71963;SDS011;59834;52.124;5.422;2023-06-10T03:09:02;4.57;;;2.72;;
71963;SDS011;59834;52.124;5.422;2023-06-10T03:11:30;5.13;;;2.80;;
71963;SDS011;59834;52.124;5.422;2023-06-10T03:13:57;7.87;;;2.60;;
71963;SDS011;59834;52.124;5.422;2023-06-10T03:16:23;5.22;;;2.42;;
71963;SDS011;59834;52.124;5.422;2023-06-10T03:18:51;5.47;;;2.80;;
71963;SDS011;59834;52.124;5.422;2023-06-10T03:21:18;4.07;;;2.45;;
71963;SDS011;59834;52.124;5.422;2023-06-10T03:23:45;6.10;;;2.75;;
71963;SDS011;59834;52.124;5.422;2023-06-10T03:26:11;5.53;;;2.53;;
71963;SDS011;59834;52.124;5.422;2023-06-10T03:28:40;3.65;;;2.30;;
71963;SDS011;59834;52.124;5.422;2023-06-10T03:31:07;8.35;;;2.65;;
71963;SDS011;59834;52.124;5.422;2023-06-10T03:33:34;4.00;;;2.40;;
71963;SDS011;59834;52.124;5.422;2023-06-10T03:36:00;6.97;;;2.28;;
71963;SDS011;59834;52.124;5.422;2023-06-10T03:38:27;8.57;;;3.03;;
71963;SDS011;59834;52.124;5.422;2023-06-10T03:40:53;4.07;;;2.47;;
71963;SDS011;59834;52.124;5.422;2023-06-10T03:43:20;4.65;;;2.75;;
71963;SDS011;59834;52.124;5.422;2023-06-10T03:45:47;6.13;;;2.67;;
71963;SDS011;59834;52.124;5.422;2023-06-10T03:48:15;3.50;;;2.30;;
71963;SDS011;59834;52.124;5.422;2023-06-10T03:50:42;8.47;;;2.90;;
71963;SDS011;59834;52.124;5.422;2023-06-10T03:53:09;6.15;;;2.63;;
71963;SDS011;59834;52.124;5.422;2023-06-10T03:55:36;6.90;;;3.00;;
71963;SDS011;59834;52.124;5.422;2023-06-10T03:58:02;2.95;;;2.25;;
71963;SDS011;59834;52.124;5.422;2023-06-10T04:00:29;5.15;;;3.13;;
71963;SDS011;59834;52.124;5.422;2023-06-10T04:02:56;4.73;;;2.50;;
71963;SDS011;59834;52.124;5.422;2023-06-10T04:05:24;6.82;;;2.58;;
71963;SDS011;59834;52.124;5.422;2023-06-10T04:07:51;4.03;;;2.38;;
71963;SDS011;59834;52.124;5.422;2023-06-10T04:10:17;5.38;;;3.05;;
71963;SDS011;59834;52.124;5.422;2023-06-10T04:12:44;4.13;;;2.95;;
71963;SDS011;59834;52.124;5.422;2023-06-10T04:15:10;6.07;;;3.07;;
71963;SDS011;59834;52.124;5.422;2023-06-10T04:17:38;5.63;;;3.15;;
71963;SDS011;59834;52.124;5.422;2023-06-10T04:20:05;6.20;;;2.75;;
71963;SDS011;59834;52.124;5.422;2023-06-10T04:22:34;7.32;;;2.95;;
71963;SDS011;59834;52.124;5.422;2023-06-10T04:25:00;3.92;;;2.40;;
71963;SDS011;59834;52.124;5.422;2023-06-10T04:27:27;26.73;;;4.77;;
71963;SDS011;59834;52.124;5.422;2023-06-10T04:29:53;4.72;;;3.10;;
71963;SDS011;59834;52.124;5.422;2023-06-10T04:32:20;10.35;;;3.60;;
71963;SDS011;59834;52.124;5.422;2023-06-10T04:34:48;5.35;;;2.75;;
71963;SDS011;59834;52.124;5.422;2023-06-10T04:37:16;4.65;;;3.10;;
71963;SDS011;59834;52.124;5.422;2023-06-10T04:39:43;5.20;;;3.37;;
71963;SDS011;59834;52.124;5.422;2023-06-10T04:42:09;4.20;;;2.38;;
71963;SDS011;59834;52.124;5.422;2023-06-10T04:44:36;12.00;;;4.55;;
71963;SDS011;59834;52.124;5.422;2023-06-10T04:47:03;5.32;;;3.30;;
71963;SDS011;59834;52.124;5.422;2023-06-10T04:49:30;6.78;;;3.28;;
71963;SDS011;59834;52.124;5.422;2023-06-10T04:51:56;8.97;;;3.80;;
71963;SDS011;59834;52.124;5.422;2023-06-10T04:54:23;5.20;;;3.28;;
71963;SDS011;59834;52.124;5.422;2023-06-10T04:56:49;5.22;;;3.00;;
71963;SDS011;59834;52.124;5.422;2023-06-10T04:59:16;5.22;;;3.25;;
71963;SDS011;59834;52.124;5.422;2023-06-10T05:01:43;7.22;;;2.78;;
71963;SDS011;59834;52.124;5.422;2023-06-10T05:04:09;7.87;;;3.03;;
71963;SDS011;59834;52.124;5.422;2023-06-10T05:06:36;4.68;;;3.50;;
71963;SDS011;59834;52.124;5.422;2023-06-10T05:09:03;7.30;;;3.25;;
71963;SDS011;59834;52.124;5.422;2023-06-10T05:11:30;6.53;;;3.38;;
71963;SDS011;59834;52.124;5.422;2023-06-10T05:13:56;5.47;;;3.70;;
71963;SDS011;59834;52.124;5.422;2023-06-10T05:16:23;7.10;;;3.53;;
71963;SDS011;59834;52.124;5.422;2023-06-10T05:18:50;9.30;;;3.60;;
71963;SDS011;59834;52.124;5.422;2023-06-10T05:21:18;5.65;;;3.83;;
71963;SDS011;59834;52.124;5.422;2023-06-10T05:23:45;6.70;;;3.60;;
71963;SDS011;59834;52.124;5.422;2023-06-10T05:26:11;4.82;;;3.35;;
71963;SDS011;59834;52.124;5.422;2023-06-10T05:28:38;7.60;;;3.73;;
71963;SDS011;59834;52.124;5.422;2023-06-10T05:31:05;7.20;;;3.90;;
71963;SDS011;59834;52.124;5.422;2023-06-10T05:33:32;5.53;;;3.47;;
71963;SDS011;59834;52.124;5.422;2023-06-10T05:35:58;4.65;;;3.83;;
71963;SDS011;59834;52.124;5.422;2023-06-10T05:38:25;5.88;;;3.80;;
71963;SDS011;59834;52.124;5.422;2023-06-10T05:40:52;9.33;;;3.87;;
71963;SDS011;59834;52.124;5.422;2023-06-10T05:43:18;4.57;;;3.72;;
71963;SDS011;59834;52.124;5.422;2023-06-10T05:45:46;7.43;;;3.58;;
71963;SDS011;59834;52.124;5.422;2023-06-10T05:48:12;6.57;;;3.50;;
71963;SDS011;59834;52.124;5.422;2023-06-10T05:50:39;5.60;;;3.60;;
71963;SDS011;59834;52.124;5.422;2023-06-10T05:53:08;6.23;;;3.93;;
71963;SDS011;59834;52.124;5.422;2023-06-10T05:55:42;9.05;;;4.25;;
71963;SDS011;59834;52.124;5.422;2023-06-10T05:58:10;10.70;;;3.97;;
71963;SDS011;59834;52.124;5.422;2023-06-10T06:00:38;6.22;;;3.92;;
71963;SDS011;59834;52.124;5.422;2023-06-10T06:03:09;9.32;;;3.60;;
71963;SDS011;59834;52.124;5.422;2023-06-10T06:05:36;7.83;;;3.87;;
71963;SDS011;59834;52.124;5.422;2023-06-10T06:08:04;7.13;;;4.32;;
71963;SDS011;59834;52.124;5.422;2023-06-10T06:10:31;5.97;;;4.07;;
71963;SDS011;59834;52.124;5.422;2023-06-10T06:12:58;8.80;;;4.43;;
71963;SDS011;59834;52.124;5.422;2023-06-10T06:15:26;6.97;;;3.97;;
71963;SDS011;59834;52.124;5.422;2023-06-10T06:17:53;8.20;;;4.00;;
71963;SDS011;59834;52.124;5.422;2023-06-10T06:20:20;8.15;;;4.00;;
71963;SDS011;59834;52.124;5.422;2023-06-10T06:22:47;8.38;;;3.85;;
71963;SDS011;59834;52.124;5.422;2023-06-10T06:25:13;6.15;;;3.88;;
71963;SDS011;59834;52.124;5.422;2023-06-10T06:27:40;7.10;;;3.92;;
71963;SDS011;59834;52.124;5.422;2023-06-10T06:30:07;6.80;;;3.87;;
71963;SDS011;59834;52.124;5.422;2023-06-10T06:32:34;5.90;;;3.70;;
71963;SDS011;59834;52.124;5.422;2023-06-10T06:35:01;6.13;;;3.80;;
71963;SDS011;59834;52.124;5.422;2023-06-10T06:37:28;4.07;;;3.55;;
71963;SDS011;59834;52.124;5.422;2023-06-10T06:39:55;5.03;;;4.00;;
71963;SDS011;59834;52.124;5.422;2023-06-10T06:42:27;6.97;;;3.97;;
71963;SDS011;59834;52.124;5.422;2023-06-10T06:44:54;5.95;;;4.03;;
71963;SDS011;59834;52.124;5.422;2023-06-10T06:47:20;10.15;;;3.95;;
71963;SDS011;59834;52.124;5.422;2023-06-10T06:49:47;10.93;;;4.07;;
71963;SDS011;59834;52.124;5.422;2023-06-10T06:52:16;7.90;;;3.95;;
71963;SDS011;59834;52.124;5.422;2023-06-10T06:54:43;6.40;;;3.63;;
71963;SDS011;59834;52.124;5.422;2023-06-10T06:57:10;10.60;;;4.10;;
71963;SDS011;59834;52.124;5.422;2023-06-10T06:59:36;7.82;;;4.20;;
71963;SDS011;59834;52.124;5.422;2023-06-10T07:02:03;5.78;;;3.85;;
71963;SDS011;59834;52.124;5.422;2023-06-10T07:04:30;5.80;;;3.22;;
71963;SDS011;59834;52.124;5.422;2023-06-10T07:06:57;9.13;;;3.87;;
71963;SDS011;59834;52.124;5.422;2023-06-10T07:09:23;4.10;;;3.70;;
71963;SDS011;59834;52.124;5.422;2023-06-10T07:11:50;5.45;;;3.70;;
71963;SDS011;59834;52.124;5.422;2023-06-10T07:14:16;7.85;;;3.67;;
71963;SDS011;59834;52.124;5.422;2023-06-10T07:16:43;7.07;;;3.72;;
71963;SDS011;59834;52.124;5.422;2023-06-10T07:19:11;7.10;;;4.07;;
71963;SDS011;59834;52.124;5.422;2023-06-10T07:21:38;4.25;;;3.65;;
71963;SDS011;59834;52.124;5.422;2023-06-10T07:24:05;6.07;;;4.10;;
71963;SDS011;59834;52.124;5.422;2023-06-10T07:26:32;5.00;;;3.83;;
71963;SDS011;59834;52.124;5.422;2023-06-10T07:28:58;10.32;;;4.07;;
71963;SDS011;59834;52.124;5.422;2023-06-10T07:31:25;9.80;;;4.00;;
71963;SDS011;59834;52.124;5.422;2023-06-10T07:33:51;4.78;;;3.42;;
71963;SDS011;59834;52.124;5.422;2023-06-10T07:36:18;6.00;;;3.40;;
71963;SDS011;59834;52.124;5.422;2023-06-10T07:38:46;6.03;;;3.78;;
71963;SDS011;59834;52.124;5.422;2023-06-10T07:41:12;6.25;;;3.40;;
71963;SDS011;59834;52.124;5.422;2023-06-10T07:43:39;5.70;;;3.40;;
71963;SDS011;59834;52.124;5.422;2023-06-10T07:46:06;7.88;;;3.58;;
71963;SDS011;59834;52.124;5.422;2023-06-10T07:48:33;8.45;;;3.72;;
71963;SDS011;59834;52.124;5.422;2023-06-10T07:50:59;7.50;;;3.85;;
71963;SDS011;59834;52.124;5.422;2023-06-10T07:53:26;5.03;;;3.42;;
71963;SDS011;59834;52.124;5.422;2023-06-10T07:55:53;4.63;;;3.23;;
71963;SDS011;59834;52.124;5.422;2023-06-10T07:58:19;4.43;;;3.50;;
71963;SDS011;59834;52.124;5.422;2023-06-10T08:00:47;5.97;;;3.13;;
71963;SDS011;59834;52.124;5.422;2023-06-10T08:03:14;8.15;;;2.95;;
71963;SDS011;59834;52.124;5.422;2023-06-10T08:05:41;4.93;;;3.60;;
71963;SDS011;59834;52.124;5.422;2023-06-10T08:08:07;4.43;;;3.20;;
71963;SDS011;59834;52.124;5.422;2023-06-10T08:10:34;7.03;;;3.40;;
71963;SDS011;59834;52.124;5.422;2023-06-10T08:13:01;4.47;;;2.83;;
71963;SDS011;59834;52.124;5.422;2023-06-10T08:15:27;6.53;;;3.13;;
71963;SDS011;59834;52.124;5.422;2023-06-10T08:17:54;9.32;;;3.42;;
71963;SDS011;59834;52.124;5.422;2023-06-10T08:20:20;5.03;;;2.90;;
71963;SDS011;59834;52.124;5.422;2023-06-10T08:22:47;4.68;;;3.78;;
71963;SDS011;59834;52.124;5.422;2023-06-10T08:25:14;10.18;;;3.22;;
71963;SDS011;59834;52.124;5.422;2023-06-10T08:27:40;6.68;;;3.30;;
71963;SDS011;59834;52.124;5.422;2023-06-10T08:30:07;11.55;;;3.30;;
71963;SDS011;59834;52.124;5.422;2023-06-10T08:32:36;7.40;;;3.27;;
71963;SDS011;59834;52.124;5.422;2023-06-10T08:35:03;10.63;;;3.92;;
71963;SDS011;59834;52.124;5.422;2023-06-10T08:37:30;6.95;;;2.72;;
71963;SDS011;59834;52.124;5.422;2023-06-10T08:39:57;5.82;;;2.55;;
71963;SDS011;59834;52.124;5.422;2023-06-10T08:45:25;5.23;;;3.30;;
71963;SDS011;59834;52.124;5.422;2023-06-10T08:47:54;4.20;;;2.97;;
71963;SDS011;59834;52.124;5.422;2023-06-10T08:50:24;7.15;;;3.15;;
71963;SDS011;59834;52.124;5.422;2023-06-10T08:52:53;7.63;;;3.40;;
71963;SDS011;59834;52.124;5.422;2023-06-10T08:55:23;6.15;;;3.20;;
71963;SDS011;59834;52.124;5.422;2023-06-10T08:58:00;6.83;;;3.10;;
71963;SDS011;59834;52.124;5.422;2023-06-10T09:00:28;7.22;;;3.10;;
71963;SDS011;59834;52.124;5.422;2023-06-10T09:02:57;6.25;;;3.53;;
71963;SDS011;59834;52.124;5.422;2023-06-10T09:05:28;8.00;;;2.65;;
71963;SDS011;59834;52.124;5.422;2023-06-10T09:07:56;5.50;;;3.42;;
71963;SDS011;59834;52.124;5.422;2023-06-10T09:10:24;11.60;;;3.17;;
71963;SDS011;59834;52.124;5.422;2023-06-10T09:12:51;5.03;;;3.08;;
71963;SDS011;59834;52.124;5.422;2023-06-10T09:15:17;8.30;;;2.95;;
71963;SDS011;59834;52.124;5.422;2023-06-10T09:17:44;5.20;;;3.13;;
71963;SDS011;59834;52.124;5.422;2023-06-10T09:20:11;5.57;;;2.90;;
71963;SDS011;59834;52.124;5.422;2023-06-10T09:22:40;3.87;;;2.90;;
71963;SDS011;59834;52.124;5.422;2023-06-10T09:25:09;5.30;;;2.97;;
71963;SDS011;59834;52.124;5.422;2023-06-10T09:27:44;3.55;;;2.85;;
71963;SDS011;59834;52.124;5.422;2023-06-10T09:30:25;4.35;;;3.17;;
71963;SDS011;59834;52.124;5.422;2023-06-10T09:32:56;5.15;;;2.85;;
71963;SDS011;59834;52.124;5.422;2023-06-10T09:35:24;5.27;;;2.67;;
71963;SDS011;59834;52.124;5.422;2023-06-10T09:37:55;6.25;;;2.90;;
71963;SDS011;59834;52.124;5.422;2023-06-10T09:40:23;6.78;;;2.88;;
71963;SDS011;59834;52.124;5.422;2023-06-10T09:42:58;3.47;;;2.60;;
71963;SDS011;59834;52.124;5.422;2023-06-10T09:45:29;6.10;;;2.63;;
71963;SDS011;59834;52.124;5.422;2023-06-10T09:48:00;10.77;;;3.23;;
71963;SDS011;59834;52.124;5.422;2023-06-10T09:50:27;5.30;;;3.13;;
71963;SDS011;59834;52.124;5.422;2023-06-10T09:52:54;3.97;;;2.70;;
71963;SDS011;59834;52.124;5.422;2023-06-10T09:55:21;2.63;;;2.42;;
71963;SDS011;59834;52.124;5.422;2023-06-10T09:57:52;7.20;;;3.47;;
71963;SDS011;59834;52.124;5.422;2023-06-10T10:00:21;5.67;;;2.57;;
71963;SDS011;59834;52.124;5.422;2023-06-10T10:02:49;6.78;;;2.25;;
71963;SDS011;59834;52.124;5.422;2023-06-10T10:05:19;7.40;;;2.50;;
71963;SDS011;59834;52.124;5.422;2023-06-10T10:07:47;5.65;;;2.80;;
71963;SDS011;59834;52.124;5.422;2023-06-10T10:10:17;4.13;;;2.95;;
71963;SDS011;59834;52.124;5.422;2023-06-10T10:12:47;4.57;;;2.80;;
71963;SDS011;59834;52.124;5.422;2023-06-10T10:15:15;7.05;;;2.45;;
71963;SDS011;59834;52.124;5.422;2023-06-10T10:17:44;6.55;;;2.55;;
71963;SDS011;59834;52.124;5.422;2023-06-10T10:20:17;4.45;;;2.72;;
71963;SDS011;59834;52.124;5.422;2023-06-10T10:22:48;6.57;;;2.55;;
71963;SDS011;59834;52.124;5.422;2023-06-10T10:25:16;6.00;;;2.77;;
71963;SDS011;59834;52.124;5.422;2023-06-10T10:30:17;5.65;;;2.67;;
71963;SDS011;59834;52.124;5.422;2023-06-10T10:35:41;4.60;;;2.53;;
71963;SDS011;59834;52.124;5.422;2023-06-10T10:38:09;3.57;;;2.63;;
71963;SDS011;59834;52.124;5.422;2023-06-10T10:40:37;4.15;;;2.42;;
71963;SDS011;59834;52.124;5.422;2023-06-10T10:43:05;13.13;;;2.55;;
71963;SDS011;59834;52.124;5.422;2023-06-10T10:45:34;7.38;;;2.83;;
71963;SDS011;59834;52.124;5.422;2023-06-10T10:48:04;5.65;;;2.75;;
71963;SDS011;59834;52.124;5.422;2023-06-10T10:50:35;4.43;;;2.23;;
71963;SDS011;59834;52.124;5.422;2023-06-10T10:53:02;4.55;;;2.72;;
71963;SDS011;59834;52.124;5.422;2023-06-10T10:55:30;5.63;;;2.20;;
71963;SDS011;59834;52.124;5.422;2023-06-10T10:57:58;3.00;;;2.22;;
71963;SDS011;59834;52.124;5.422;2023-06-10T11:00:35;3.58;;;2.50;;
71963;SDS011;59834;52.124;5.422;2023-06-10T11:03:05;5.10;;;2.27;;
71963;SDS011;59834;52.124;5.422;2023-06-10T11:08:04;3.70;;;2.65;;
71963;SDS011;59834;52.124;5.422;2023-06-10T11:10:33;6.40;;;3.30;;
71963;SDS011;59834;52.124;5.422;2023-06-10T11:15:44;3.03;;;2.73;;
71963;SDS011;59834;52.124;5.422;2023-06-10T11:18:14;8.82;;;3.53;;
71963;SDS011;59834;52.124;5.422;2023-06-10T11:23:49;3.45;;;2.70;;
71963;SDS011;59834;52.124;5.422;2023-06-10T11:26:30;4.00;;;2.67;;
71963;SDS011;59834;52.124;5.422;2023-06-10T11:31:27;6.22;;;2.60;;
71963;SDS011;59834;52.124;5.422;2023-06-10T11:33:59;4.32;;;2.80;;
71963;SDS011;59834;52.124;5.422;2023-06-10T11:36:28;5.10;;;3.10;;
71963;SDS011;59834;52.124;5.422;2023-06-10T11:38:56;2.97;;;2.47;;
71963;SDS011;59834;52.124;5.422;2023-06-10T11:41:25;5.67;;;3.17;;
71963;SDS011;59834;52.124;5.422;2023-06-10T11:43:54;3.40;;;2.80;;
71963;SDS011;59834;52.124;5.422;2023-06-10T11:46:24;4.93;;;2.85;;
71963;SDS011;59834;52.124;5.422;2023-06-10T11:48:55;4.63;;;2.80;;
71963;SDS011;59834;52.124;5.422;2023-06-10T11:51:27;4.40;;;2.90;;
71963;SDS011;59834;52.124;5.422;2023-06-10T11:53:58;4.80;;;2.87;;
71963;SDS011;59834;52.124;5.422;2023-06-10T11:56:28;3.50;;;3.20;;
71963;SDS011;59834;52.124;5.422;2023-06-10T12:01:26;4.75;;;2.70;;
71963;SDS011;59834;52.124;5.422;2023-06-10T12:04:04;4.75;;;2.97;;
71963;SDS011;59834;52.124;5.422;2023-06-10T12:09:07;5.78;;;2.72;;
71963;SDS011;59834;52.124;5.422;2023-06-10T12:12:00;5.68;;;2.83;;
71963;SDS011;59834;52.124;5.422;2023-06-10T12:17:21;6.75;;;2.80;;
71963;SDS011;59834;52.124;5.422;2023-06-10T12:19:49;3.57;;;2.83;;
71963;SDS011;59834;52.124;5.422;2023-06-10T12:22:16;3.53;;;3.17;;
71963;SDS011;59834;52.124;5.422;2023-06-10T12:24:46;4.50;;;3.28;;
71963;SDS011;59834;52.124;5.422;2023-06-10T12:27:28;3.88;;;3.03;;
71963;SDS011;59834;52.124;5.422;2023-06-10T12:29:56;6.20;;;3.22;;
71963;SDS011;59834;52.124;5.422;2023-06-10T12:32:45;3.53;;;2.90;;
71963;SDS011;59834;52.124;5.422;2023-06-10T12:35:17;5.90;;;3.47;;
71963;SDS011;59834;52.124;5.422;2023-06-10T12:37:55;4.93;;;3.13;;
71963;SDS011;59834;52.124;5.422;2023-06-10T12:40:29;6.22;;;3.38;;
71963;SDS011;59834;52.124;5.422;2023-06-10T12:43:01;8.15;;;3.25;;
71963;SDS011;59834;52.124;5.422;2023-06-10T12:45:35;3.60;;;3.30;;
71963;SDS011;59834;52.124;5.422;2023-06-10T12:48:05;3.55;;;3.13;;
71963;SDS011;59834;52.124;5.422;2023-06-10T12:50:50;9.13;;;3.45;;
71963;SDS011;59834;52.124;5.422;2023-06-10T12:53:19;6.88;;;3.33;;
71963;SDS011;59834;52.124;5.422;2023-06-10T12:55:47;3.70;;;3.30;;
71963;SDS011;59834;52.124;5.422;2023-06-10T12:58:13;6.10;;;3.23;;
71963;SDS011;59834;52.124;5.422;2023-06-10T13:00:40;4.43;;;2.80;;
71963;SDS011;59834;52.124;5.422;2023-06-10T13:03:08;7.22;;;2.85;;
71963;SDS011;59834;52.124;5.422;2023-06-10T13:05:36;6.22;;;3.22;;
71963;SDS011;59834;52.124;5.422;2023-06-10T13:08:08;6.70;;;3.28;;
71963;SDS011;59834;52.124;5.422;2023-06-10T13:10:36;3.23;;;2.93;;
71963;SDS011;59834;52.124;5.422;2023-06-10T13:13:03;5.20;;;3.15;;
71963;SDS011;59834;52.124;5.422;2023-06-10T13:15:34;3.75;;;3.00;;
71963;SDS011;59834;52.124;5.422;2023-06-10T13:18:08;4.35;;;3.17;;
71963;SDS011;59834;52.124;5.422;2023-06-10T13:20:35;5.32;;;3.25;;
71963;SDS011;59834;52.124;5.422;2023-06-10T13:23:02;5.70;;;3.13;;
71963;SDS011;59834;52.124;5.422;2023-06-10T13:25:28;5.32;;;3.13;;
71963;SDS011;59834;52.124;5.422;2023-06-10T13:27:55;6.20;;;3.20;;
71963;SDS011;59834;52.124;5.422;2023-06-10T13:30:22;3.80;;;3.10;;
71963;SDS011;59834;52.124;5.422;2023-06-10T13:32:49;5.05;;;3.67;;
71963;SDS011;59834;52.124;5.422;2023-06-10T13:35:15;5.03;;;2.97;;
71963;SDS011;59834;52.124;5.422;2023-06-10T13:37:42;3.53;;;2.90;;
71963;SDS011;59834;52.124;5.422;2023-06-10T13:40:08;4.25;;;3.08;;
71963;SDS011;59834;52.124;5.422;2023-06-10T13:42:36;4.22;;;2.72;;
71963;SDS011;59834;52.124;5.422;2023-06-10T13:45:03;5.88;;;3.28;;
71963;SDS011;59834;52.124;5.422;2023-06-10T13:47:32;3.37;;;2.90;;
71963;SDS011;59834;52.124;5.422;2023-06-10T13:49:59;4.50;;;3.25;;
71963;SDS011;59834;52.124;5.422;2023-06-10T13:52:26;3.88;;;2.72;;
71963;SDS011;59834;52.124;5.422;2023-06-10T13:54:52;3.90;;;2.95;;
71963;SDS011;59834;52.124;5.422;2023-06-10T13:57:19;3.85;;;2.83;;
71963;SDS011;59834;52.124;5.422;2023-06-10T13:59:45;4.13;;;2.80;;
71963;SDS011;59834;52.124;5.422;2023-06-10T14:02:12;4.10;;;3.30;;
71963;SDS011;59834;52.124;5.422;2023-06-10T14:04:38;11.05;;;2.58;;
71963;SDS011;59834;52.124;5.422;2023-06-10T14:07:05;3.05;;;2.85;;
71963;SDS011;59834;52.124;5.422;2023-06-10T14:09:32;4.60;;;2.88;;
71963;SDS011;59834;52.124;5.422;2023-06-10T14:11:58;3.17;;;2.80;;
71963;SDS011;59834;52.124;5.422;2023-06-10T14:14:25;3.10;;;2.83;;
71963;SDS011;59834;52.124;5.422;2023-06-10T14:16:51;3.15;;;2.78;;
71963;SDS011;59834;52.124;5.422;2023-06-10T14:19:18;3.60;;;2.92;;
71963;SDS011;59834;52.124;5.422;2023-06-10T14:21:45;2.90;;;2.60;;
71963;SDS011;59834;52.124;5.422;2023-06-10T14:24:11;3.77;;;2.70;;
71963;SDS011;59834;52.124;5.422;2023-06-10T14:26:38;4.00;;;2.90;;
71963;SDS011;59834;52.124;5.422;2023-06-10T14:29:04;3.10;;;2.80;;
71963;SDS011;59834;52.124;5.422;2023-06-10T14:31:31;5.78;;;2.80;;
71963;SDS011;59834;52.124;5.422;2023-06-10T14:33:57;2.97;;;2.67;;
71963;SDS011;59834;52.124;5.422;2023-06-10T14:36:25;8.73;;;2.80;;
71963;SDS011;59834;52.124;5.422;2023-06-10T14:38:51;5.43;;;2.90;;
71963;SDS011;59834;52.124;5.422;2023-06-10T14:41:18;3.15;;;2.65;;
71963;SDS011;59834;52.124;5.422;2023-06-10T14:43:45;3.45;;;2.78;;
71963;SDS011;59834;52.124;5.422;2023-06-10T14:46:12;2.97;;;2.67;;
71963;SDS011;59834;52.124;5.422;2023-06-10T14:48:39;8.03;;;3.57;;
71963;SDS011;59834;52.124;5.422;2023-06-10T14:51:05;3.33;;;3.03;;
71963;SDS011;59834;52.124;5.422;2023-06-10T14:53:32;6.75;;;3.35;;
71963;SDS011;59834;52.124;5.422;2023-06-10T14:55:58;3.38;;;2.90;;
71963;SDS011;59834;52.124;5.422;2023-06-10T14:58:25;4.85;;;2.55;;
71963;SDS011;59834;52.124;5.422;2023-06-10T15:00:52;3.73;;;2.83;;
71963;SDS011;59834;52.124;5.422;2023-06-10T15:03:18;5.68;;;3.05;;
71963;SDS011;59834;52.124;5.422;2023-06-10T15:05:45;3.47;;;2.63;;
71963;SDS011;59834;52.124;5.422;2023-06-10T15:08:11;5.22;;;2.95;;
71963;SDS011;59834;52.124;5.422;2023-06-10T15:10:38;3.30;;;3.00;;
71963;SDS011;59834;52.124;5.422;2023-06-10T15:13:05;3.73;;;3.20;;
71963;SDS011;59834;52.124;5.422;2023-06-10T15:15:31;7.97;;;2.90;;
71963;SDS011;59834;52.124;5.422;2023-06-10T15:17:58;5.93;;;2.95;;
71963;SDS011;59834;52.124;5.422;2023-06-10T15:20:25;5.78;;;2.80;;
71963;SDS011;59834;52.124;5.422;2023-06-10T15:22:51;5.22;;;2.72;;